Time;durP1;ratioP1;P1;durP2;ratioP2;P2;SDS_P1;SDS_P2;PMS_P1;PMS_P2;Temp;Humidity;BMP_temperature;BMP_pressure;BME280_temperature;BME280_humidity;BME280_pressure;Samples;Min_cycle;Max_cycle;Signal;HPM_P1;HPM_P2
2022/10/27 00:01:15;;;;;;;14.20;8.50;;;11.00;99.90;;;;;;5010692;28;20049;-75
2022/10/27 00:03:41;;;;;;;14.88;8.88;;;11.10;99.90;;;;;;5004922;28;20057;-75
2022/10/27 00:06:07;;;;;;;15.95;9.70;;;11.20;99.90;;;;;;5011944;28;20488;-75
2022/10/27 00:08:33;;;;;;;18.10;10.25;;;11.10;99.90;;;;;;5001626;28;20018;-75
2022/10/27 00:11:01;;;;;;;14.70;9.60;;;11.20;99.90;;;;;;5010649;28;20095;-75
2022/10/27 00:13:28;;;;;;;18.80;9.93;;;11.20;99.90;;;;;;4998826;28;20041;-75
2022/10/27 00:16:14;;;;;;;15.82;9.00;;;11.30;99.90;;;;;;5011799;28;20383;-75
2022/10/27 00:18:41;;;;;;;10.82;7.45;;;11.30;99.90;;;;;;5011731;28;20018;-75
2022/10/27 00:21:18;;;;;;;13.38;8.25;;;11.20;99.90;;;;;;4998731;28;20018;-76
2022/10/27 00:23:49;;;;;;;13.32;7.80;;;11.10;99.90;;;;;;5000503;28;20042;-75
2022/10/27 00:26:17;;;;;;;14.32;8.57;;;11.00;99.90;;;;;;5010695;28;20588;-74
2022/10/27 00:28:42;;;;;;;13.85;7.63;;;10.90;99.90;;;;;;4999727;28;20061;-76
2022/10/27 00:31:19;;;;;;;16.13;9.60;;;10.90;99.90;;;;;;5005232;28;20058;-75
2022/10/27 00:33:46;;;;;;;23.40;8.73;;;11.00;99.90;;;;;;5005207;28;20542;-75
2022/10/27 00:36:15;;;;;;;11.82;7.22;;;11.00;99.90;;;;;;5011751;28;20033;-75
2022/10/27 00:38:41;;;;;;;11.10;6.65;;;11.00;99.90;;;;;;5010863;28;20018;-75
2022/10/27 00:41:18;;;;;;;12.50;7.55;;;10.80;99.90;;;;;;5001397;28;20435;-76
2022/10/27 00:43:43;;;;;;;7.82;6.63;;;10.80;99.90;;;;;;5015525;28;20479;-75
2022/10/27 00:46:24;;;;;;;13.40;7.30;;;10.80;99.90;;;;;;5006352;28;20045;-75
2022/10/27 00:48:53;;;;;;;15.77;8.77;;;10.90;99.90;;;;;;4990877;28;20034;-75
2022/10/27 00:51:19;;;;;;;15.02;8.27;;;10.90;99.90;;;;;;4989664;28;20034;-75
2022/10/27 00:53:46;;;;;;;15.68;10.32;;;11.00;99.90;;;;;;5015135;28;20119;-75
2022/10/27 00:56:12;;;;;;;14.25;9.68;;;11.10;99.90;;;;;;5015202;28;20064;-75
2022/10/27 00:58:38;;;;;;;15.43;10.05;;;11.10;99.90;;;;;;5001966;28;20387;-75
2022/10/27 01:01:04;;;;;;;19.42;11.48;;;11.20;99.90;;;;;;5038413;22;20049;-73
2022/10/27 01:03:31;;;;;;;16.85;10.95;;;11.20;99.90;;;;;;5028975;28;20029;-73
2022/10/27 01:05:58;;;;;;;14.73;10.57;;;11.20;99.90;;;;;;5040621;28;20109;-73
2022/10/27 01:08:24;;;;;;;21.73;13.90;;;11.20;99.90;;;;;;5034609;28;20422;-72
2022/10/27 01:10:50;;;;;;;15.65;11.48;;;11.20;99.90;;;;;;5042978;28;20037;-74
2022/10/27 01:13:17;;;;;;;18.60;10.90;;;11.10;99.90;;;;;;5036569;28;20032;-73
2022/10/27 01:16:04;;;;;;;17.23;13.73;;;11.10;99.90;;;;;;5036513;28;20028;-73
2022/10/27 01:18:52;;;;;;;17.20;12.60;;;11.00;99.90;;;;;;5045080;28;20033;-73
2022/10/27 01:21:45;;;;;;;15.82;12.57;;;10.90;99.90;;;;;;5034355;28;20029;-74
2022/10/27 01:24:39;;;;;;;17.48;10.85;;;10.80;99.90;;;;;;5034192;28;20021;-76
2022/10/27 01:27:14;;;;;;;14.35;11.60;;;10.80;99.90;;;;;;5034184;28;20028;-75
2022/10/27 01:29:55;;;;;;;16.70;12.25;;;11.00;99.90;;;;;;5016703;28;20021;-75
2022/10/27 01:32:39;;;;;;;14.90;10.23;;;11.00;99.90;;;;;;5034135;28;20022;-75
2022/10/27 01:35:56;;;;;;;11.52;9.65;;;10.80;99.90;;;;;;5024121;28;20029;-76
2022/10/27 01:38:33;;;;;;;15.63;10.43;;;10.70;99.90;;;;;;5006006;28;20037;-75
2022/10/27 01:41:11;;;;;;;14.40;10.13;;;10.60;99.90;;;;;;5029376;28;20022;-75
2022/10/27 01:43:38;;;;;;;12.05;9.73;;;10.60;99.90;;;;;;5035793;28;20087;-75
2022/10/27 01:46:06;;;;;;;16.52;9.00;;;10.60;99.90;;;;;;5033767;28;20028;-75
2022/10/27 01:48:34;;;;;;;14.27;8.98;;;10.50;99.90;;;;;;5033614;28;20017;-74
2022/10/27 01:50:59;;;;;;;10.93;8.20;;;10.40;99.90;;;;;;5016088;28;20112;-74
2022/10/27 01:53:26;;;;;;;12.18;9.95;;;10.40;99.90;;;;;;5032712;28;20140;-73
2022/10/27 01:56:04;;;;;;;13.25;9.60;;;10.40;99.90;;;;;;5034032;28;20111;-74
2022/10/27 01:58:41;;;;;;;18.90;12.00;;;10.40;99.90;;;;;;5033450;28;20025;-75
2022/10/27 02:01:30;;;;;;;21.00;11.13;;;10.30;99.90;;;;;;5033542;28;20052;-74
2022/10/27 02:04:29;;;;;;;90.95;13.90;;;10.30;99.90;;;;;;5015969;28;20036;-75
2022/10/27 02:07:04;;;;;;;73.50;14.18;;;10.30;99.90;;;;;;5033379;28;20029;-75
2022/10/27 02:09:39;;;;;;;35.13;14.70;;;10.30;99.90;;;;;;5033448;28;20033;-75
2022/10/27 02:12:10;;;;;;;97.20;13.00;;;10.30;99.90;;;;;;5015650;28;20040;-74
2022/10/27 02:14:37;;;;;;;306.38;26.85;;;10.10;99.90;;;;;;5033267;28;20694;-74
2022/10/27 02:17:05;;;;;;;154.35;22.75;;;10.10;99.90;;;;;;5015598;28;20391;-74
2022/10/27 02:19:40;;;;;;;33.17;13.55;;;10.00;99.90;;;;;;5033123;28;20032;-74
2022/10/27 02:22:06;;;;;;;35.70;12.10;;;10.00;99.90;;;;;;5033329;28;20025;-74
2022/10/27 02:24:32;;;;;;;43.05;14.85;;;9.90;99.90;;;;;;5033023;28;20256;-76
2022/10/27 02:27:10;;;;;;;42.13;12.25;;;10.00;99.90;;;;;;5033095;28;20504;-76
2022/10/27 02:29:48;;;;;;;39.65;12.52;;;9.90;99.90;;;;;;5032977;28;20100;-75
2022/10/27 02:32:20;;;;;;;13.02;9.65;;;9.90;99.90;;;;;;5033010;28;20120;-75
2022/10/27 02:34:47;;;;;;;40.88;12.48;;;10.00;99.90;;;;;;5041308;28;20486;-75
2022/10/27 02:37:33;;;;;;;23.73;10.65;;;9.90;99.90;;;;;;5052604;28;20281;-74
2022/10/27 02:39:58;;;;;;;11.90;8.25;;;9.90;99.90;;;;;;5052585;28;20029;-75
2022/10/27 02:42:24;;;;;;;17.80;8.00;;;9.80;99.90;;;;;;5034160;28;20021;-75
2022/10/27 02:44:50;;;;;;;7.60;6.90;;;9.90;99.90;;;;;;5032813;28;20083;-75
2022/10/27 02:47:16;;;;;;;8.63;7.28;;;9.90;99.90;;;;;;5014717;28;20029;-75
2022/10/27 02:49:41;;;;;;;8.20;6.63;;;9.80;99.90;;;;;;5032551;28;20029;-74
2022/10/27 02:52:07;;;;;;;7.53;6.18;;;9.80;99.90;;;;;;5032646;28;20034;-74
2022/10/27 02:54:32;;;;;;;6.40;5.68;;;9.70;99.90;;;;;;5032907;28;20033;-75
2022/10/27 02:56:58;;;;;;;6.85;5.80;;;9.70;99.90;;;;;;5014649;28;20038;-76
2022/10/27 02:59:24;;;;;;;6.13;5.60;;;9.60;99.90;;;;;;5014840;28;20556;-76
2022/10/27 03:01:50;;;;;;;9.20;6.20;;;9.60;99.90;;;;;;5032234;28;20030;-76
2022/10/27 03:04:16;;;;;;;12.00;6.63;;;9.60;99.90;;;;;;5032336;28;20052;-75
2022/10/27 03:06:41;;;;;;;8.52;6.00;;;9.70;99.90;;;;;;5014531;28;20021;-74
2022/10/27 03:09:07;;;;;;;7.78;5.75;;;9.60;99.90;;;;;;5032381;28;20040;-74
2022/10/27 03:11:32;;;;;;;7.05;5.82;;;9.50;99.90;;;;;;5045673;28;20036;-75
2022/10/27 03:13:58;;;;;;;78.70;9.52;;;9.70;99.90;;;;;;5043535;28;20037;-75
2022/10/27 03:16:23;;;;;;;14.07;7.97;;;9.80;99.90;;;;;;5034468;28;20025;-75
2022/10/27 03:18:49;;;;;;;8.88;7.82;;;9.80;99.90;;;;;;5023506;28;20060;-75
2022/10/27 03:21:14;;;;;;;12.00;8.07;;;9.90;99.90;;;;;;5018411;28;20064;-75
2022/10/27 03:23:40;;;;;;;9.85;6.38;;;9.90;99.90;;;;;;5052115;28;20533;-74
2022/10/27 03:26:06;;;;;;;31.52;6.05;;;9.90;99.90;;;;;;5038889;28;20025;-74
2022/10/27 03:28:34;;;;;;;29.23;6.53;;;9.90;99.90;;;;;;5033963;28;20033;-74
2022/10/27 03:31:00;;;;;;;33.15;6.68;;;10.00;99.90;;;;;;5021236;28;20025;-75
2022/10/27 03:33:26;;;;;;;97.68;10.35;;;10.00;99.90;;;;;;5022852;28;20033;-74
2022/10/27 03:35:52;;;;;;;35.15;8.63;;;10.00;99.90;;;;;;5027668;28;20021;-74
2022/10/27 03:38:17;;;;;;;12.98;8.00;;;10.00;99.90;;;;;;5025207;28;20471;-75
2022/10/27 03:40:43;;;;;;;12.82;7.80;;;10.00;99.90;;;;;;5038707;28;20021;-74
2022/10/27 03:43:10;;;;;;;8.18;6.85;;;10.00;99.90;;;;;;5051914;28;20048;-74
2022/10/27 03:45:35;;;;;;;14.93;7.70;;;10.00;99.90;;;;;;5046671;28;20026;-74
2022/10/27 03:48:06;;;;;;;30.55;9.77;;;9.90;99.90;;;;;;5031972;28;20034;-75
2022/10/27 03:50:33;;;;;;;37.88;11.30;;;9.90;99.90;;;;;;5038279;28;20126;-75
2022/10/27 03:52:58;;;;;;;28.10;9.63;;;9.90;99.90;;;;;;5030561;28;20120;-74
2022/10/27 03:55:24;;;;;;;8.93;6.30;;;9.90;99.90;;;;;;5037120;28;20107;-74
2022/10/27 03:57:50;;;;;;;10.93;6.53;;;9.80;99.90;;;;;;5039564;28;20017;-74
2022/10/27 04:00:16;;;;;;;10.02;7.25;;;9.70;99.90;;;;;;5032158;28;20040;-74
2022/10/27 04:02:42;;;;;;;11.80;7.97;;;9.70;99.90;;;;;;5039641;28;20105;-74
2022/10/27 04:05:07;;;;;;;23.38;10.25;;;9.70;99.90;;;;;;5044996;28;20053;-74
2022/10/27 04:07:33;;;;;;;20.15;7.13;;;9.70;99.90;;;;;;5043276;28;20433;-74
2022/10/27 04:09:59;;;;;;;13.57;9.82;;;9.70;99.90;;;;;;5020299;28;20107;-74
2022/10/27 04:12:24;;;;;;;21.50;11.10;;;9.50;99.90;;;;;;5022164;28;20406;-74
2022/10/27 04:14:50;;;;;;;8.82;6.70;;;9.30;99.90;;;;;;5027070;28;20025;-74
2022/10/27 04:17:16;;;;;;;16.73;10.45;;;9.30;99.90;;;;;;5028487;28;20029;-74
2022/10/27 04:19:42;;;;;;;8.82;5.32;;;9.20;99.90;;;;;;5042067;28;20115;-74
2022/10/27 04:22:07;;;;;;;44.70;7.50;;;9.20;99.90;;;;;;5026390;28;20112;-74
2022/10/27 04:24:33;;;;;;;8.35;6.82;;;9.10;99.90;;;;;;5051731;28;20033;-72
2022/10/27 04:26:58;;;;;;;8.25;6.85;;;9.00;99.90;;;;;;5040484;28;20471;-72
2022/10/27 04:29:24;;;;;;;13.43;5.53;;;9.00;99.90;;;;;;5035314;28;20104;-73
2022/10/27 04:31:50;;;;;;;6.55;4.43;;;9.10;99.90;;;;;;5035189;28;20057;-72
2022/10/27 04:34:15;;;;;;;5.82;4.43;;;9.10;99.90;;;;;;5026435;28;20030;-72
2022/10/27 04:36:41;;;;;;;8.45;5.28;;;9.10;99.90;;;;;;5016554;28;20029;-72
2022/10/27 04:39:06;;;;;;;11.10;5.57;;;9.00;99.90;;;;;;5038108;28;20152;-72
2022/10/27 04:41:32;;;;;;;6.57;4.82;;;9.00;99.90;;;;;;5017439;28;20025;-72
2022/10/27 04:43:57;;;;;;;9.07;7.00;;;8.90;99.90;;;;;;5035048;28;20037;-73
2022/10/27 04:46:23;;;;;;;13.98;8.15;;;9.00;99.90;;;;;;5035095;28;20100;-74
2022/10/27 04:48:49;;;;;;;54.50;10.10;;;9.00;99.90;;;;;;5034778;28;20105;-72
2022/10/27 04:51:14;;;;;;;14.30;6.70;;;8.80;99.90;;;;;;5017362;28;20419;-75
2022/10/27 04:53:40;;;;;;;7.88;5.85;;;8.70;99.90;;;;;;5052713;28;20033;-73
2022/10/27 04:56:05;;;;;;;10.20;6.50;;;8.70;99.90;;;;;;5025863;28;20028;-74
2022/10/27 04:58:31;;;;;;;17.55;6.45;;;8.70;99.90;;;;;;5016922;28;20021;-74
2022/10/27 05:00:57;;;;;;;25.65;5.57;;;8.80;99.90;;;;;;5034712;28;20026;-75
2022/10/27 05:03:22;;;;;;;49.88;6.40;;;8.90;99.90;;;;;;5052950;28;20067;-75
2022/10/27 05:05:48;;;;;;;305.83;18.60;;;9.00;99.90;;;;;;5043114;28;20021;-75
2022/10/27 05:08:13;;;;;;;96.22;11.07;;;9.10;99.90;;;;;;5034874;28;20032;-75
2022/10/27 05:10:39;;;;;;;34.30;7.45;;;9.20;99.90;;;;;;5043109;28;20033;-75
2022/10/27 05:13:04;;;;;;;73.45;10.65;;;9.20;99.90;;;;;;5034606;28;20029;-73
2022/10/27 05:15:30;;;;;;;162.13;13.20;;;9.00;99.90;;;;;;5034547;28;20017;-74
2022/10/27 05:17:55;;;;;;;129.52;15.00;;;9.10;99.90;;;;;;5029822;28;20471;-74
2022/10/27 05:20:21;;;;;;;148.60;16.00;;;9.20;99.90;;;;;;5045883;28;20382;-74
2022/10/27 05:22:47;;;;;;;107.65;13.93;;;9.10;99.90;;;;;;5036359;28;20475;-74
2022/10/27 05:25:13;;;;;;;291.23;22.90;;;9.10;99.90;;;;;;5034612;28;20025;-74
2022/10/27 05:27:38;;;;;;;89.97;13.48;;;9.10;99.90;;;;;;5032935;28;20164;-74
2022/10/27 05:30:06;;;;;;;337.05;88.13;;;9.10;99.90;;;;;;5045476;28;20025;-74
2022/10/27 05:32:31;;;;;;;98.40;26.02;;;9.10;99.90;;;;;;5023089;28;20116;-74
2022/10/27 05:34:57;;;;;;;244.15;26.80;;;8.90;99.90;;;;;;5025073;28;20108;-74
2022/10/27 05:37:23;;;;;;;203.85;29.10;;;8.80;99.90;;;;;;5029558;28;20022;-75
2022/10/27 05:39:48;;;;;;;278.05;29.90;;;8.60;99.90;;;;;;5045291;28;20037;-74
2022/10/27 05:42:14;;;;;;;109.65;23.08;;;8.60;99.90;;;;;;5036878;28;20467;-74
2022/10/27 05:44:39;;;;;;;87.93;19.95;;;8.70;99.90;;;;;;5034153;28;20040;-74
2022/10/27 05:47:05;;;;;;;202.18;27.65;;;8.80;99.90;;;;;;5047144;28;20152;-74
2022/10/27 05:49:30;;;;;;;159.98;25.55;;;8.80;99.90;;;;;;5026311;28;20115;-74
2022/10/27 05:51:56;;;;;;;160.25;31.17;;;8.90;99.90;;;;;;5037100;28;20029;-73
2022/10/27 05:54:21;;;;;;;143.65;33.40;;;9.00;99.90;;;;;;5044053;28;20033;-74
2022/10/27 05:56:49;;;;;;;280.73;37.97;;;9.10;99.90;;;;;;5050215;28;20026;-74
2022/10/27 05:59:14;;;;;;;173.50;35.28;;;9.00;99.90;;;;;;5044102;28;20769;-73
2022/10/27 06:01:40;;;;;;;210.98;115.80;;;8.90;99.90;;;;;;5040277;28;20033;-75
2022/10/27 06:04:06;;;;;;;101.80;58.67;;;8.90;99.90;;;;;;5025459;28;20387;-74
2022/10/27 06:06:31;;;;;;;129.80;64.20;;;8.90;99.90;;;;;;5037030;28;20096;-74
2022/10/27 06:08:57;;;;;;;90.82;48.60;;;8.80;99.90;;;;;;5025630;28;20091;-73
2022/10/27 06:11:22;;;;;;;17.17;12.98;;;8.80;99.90;;;;;;5050173;28;20108;-74
2022/10/27 06:13:49;;;;;;;1999.90;999.90;;;8.90;99.90;;;;;;5053282;28;20091;-74
2022/10/27 06:16:15;;;;;;;1507.43;756.67;;;8.90;99.90;;;;;;5038629;28;20475;-74
2022/10/27 06:18:41;;;;;;;160.05;143.05;;;8.90;99.90;;;;;;5035188;28;20026;-71
2022/10/27 06:21:06;;;;;;;64.15;17.17;;;9.00;99.90;;;;;;5036235;28;20033;-74
2022/10/27 06:23:32;;;;;;;741.28;580.65;;;9.00;99.90;;;;;;5053251;28;20051;-74
2022/10/27 06:25:58;;;;;;;289.83;178.32;;;9.00;99.90;;;;;;5040525;28;20407;-74
2022/10/27 06:28:23;;;;;;;500.80;462.42;;;9.00;99.90;;;;;;5043347;28;20034;-74
2022/10/27 06:30:49;;;;;;;117.18;107.65;;;9.00;99.90;;;;;;5045655;28;20032;-74
2022/10/27 06:33:14;;;;;;;168.60;24.52;;;9.10;99.90;;;;;;5045585;28;20032;-74
2022/10/27 06:35:40;;;;;;;179.57;20.23;;;9.10;99.90;;;;;;5045747;28;20044;-74
2022/10/27 06:38:08;;;;;;;271.15;29.55;;;9.10;99.90;;;;;;5041600;28;20028;-74
2022/10/27 06:40:33;;;;;;;336.38;24.38;;;9.10;99.90;;;;;;5037009;28;20021;-74
2022/10/27 06:42:59;;;;;;;167.15;23.05;;;9.10;99.90;;;;;;5032366;28;20104;-74
2022/10/27 06:45:24;;;;;;;58.50;15.07;;;9.10;99.90;;;;;;5032913;28;20522;-74
2022/10/27 06:47:57;;;;;;;59.75;18.88;;;9.20;99.90;;;;;;5014666;28;20021;-74
2022/10/27 06:50:23;;;;;;;30.42;17.10;;;9.10;99.90;;;;;;5036752;28;20021;-75
2022/10/27 06:52:50;;;;;;;16.48;14.68;;;9.10;99.90;;;;;;5024115;28;20033;-75
2022/10/27 06:55:15;;;;;;;14.55;12.40;;;9.00;99.90;;;;;;5046089;28;20076;-75
2022/10/27 06:57:42;;;;;;;34.83;13.32;;;9.20;99.90;;;;;;5043158;28;20429;-75
2022/10/27 07:00:09;;;;;;;391.20;372.17;;;9.20;99.90;;;;;;5035593;28;20044;-76
2022/10/27 07:02:34;;;;;;;1999.90;999.90;;;9.20;99.90;;;;;;5043020;28;20032;-75
2022/10/27 07:05:00;;;;;;;91.70;11.52;;;9.10;99.90;;;;;;5048680;28;20022;-74
2022/10/27 07:07:26;;;;;;;18.00;9.95;;;9.10;99.90;;;;;;5042957;28;20479;-75
2022/10/27 07:09:51;;;;;;;113.43;16.60;;;9.30;99.90;;;;;;5017300;28;20164;-75
2022/10/27 07:12:17;;;;;;;97.35;11.30;;;9.30;99.90;;;;;;5042611;28;20017;-74
2022/10/27 07:14:42;;;;;;;26.13;8.20;;;9.30;99.90;;;;;;5034357;28;20029;-74
2022/10/27 07:17:08;;;;;;;138.13;13.55;;;9.30;99.90;;;;;;5024134;28;20506;-75
2022/10/27 07:19:33;;;;;;;99.68;13.70;;;9.40;99.90;;;;;;5032174;28;20064;-75
2022/10/27 07:21:59;;;;;;;50.03;12.90;;;9.40;99.90;;;;;;5014403;28;20117;-75
2022/10/27 07:24:24;;;;;;;26.75;12.48;;;9.40;99.90;;;;;;5037969;28;20123;-74
2022/10/27 07:26:50;;;;;;;10.98;9.68;;;9.50;99.90;;;;;;5024639;28;20029;-75
2022/10/27 07:29:15;;;;;;;11.15;8.43;;;9.60;99.90;;;;;;5017194;28;20029;-75
2022/10/27 07:31:45;;;;;;;9.90;8.95;;;9.70;99.90;;;;;;5042348;28;20030;-75
2022/10/27 07:34:11;;;;;;;14.32;12.02;;;9.80;99.90;;;;;;5045194;28;20036;-75
2022/10/27 07:36:37;;;;;;;13.77;11.23;;;9.80;99.90;;;;;;5042287;28;20150;-75
2022/10/27 07:39:02;;;;;;;10.98;9.88;;;9.80;99.90;;;;;;5020672;28;20115;-75
2022/10/27 07:41:28;;;;;;;10.40;8.82;;;10.00;99.90;;;;;;5051734;28;20104;-75
2022/10/27 07:43:53;;;;;;;8.70;7.22;;;10.10;99.90;;;;;;5050445;28;20049;-75
2022/10/27 07:46:19;;;;;;;8.07;7.30;;;10.20;99.90;;;;;;5041171;28;20104;-75
2022/10/27 07:48:45;;;;;;;9.02;7.18;;;10.20;99.90;;;;;;5027389;28;20053;-74
2022/10/27 07:51:10;;;;;;;7.55;6.82;;;10.20;99.90;;;;;;5041299;28;20375;-75
2022/10/27 07:53:36;;;;;;;11.65;9.30;;;10.30;99.90;;;;;;5038193;28;20540;-76
2022/10/27 07:56:01;;;;;;;8.10;7.35;;;10.40;99.90;;;;;;5041584;28;20029;-75
2022/10/27 07:58:27;;;;;;;8.90;8.00;;;10.50;99.90;;;;;;5027133;28;20063;-75
2022/10/27 08:00:53;;;;;;;9.48;8.35;;;10.50;99.90;;;;;;5023727;28;20364;-75
2022/10/27 08:03:29;;;;;;;13.52;7.78;;;10.50;99.90;;;;;;5038231;28;20047;-76
2022/10/27 08:05:57;;;;;;;8.80;7.18;;;10.60;99.90;;;;;;5022240;28;20030;-75
2022/10/27 08:08:22;;;;;;;10.85;7.95;;;10.70;99.90;;;;;;5044740;28;20025;-75
2022/10/27 08:10:49;;;;;;;11.00;8.95;;;10.80;99.90;;;;;;5043625;28;20119;-76
2022/10/27 08:13:15;;;;;;;1999.90;999.90;;;10.80;99.90;;;;;;5037942;28;20025;-76
2022/10/27 08:15:41;;;;;;;1999.90;999.90;;;10.80;99.90;;;;;;5039416;28;20086;-75
2022/10/27 08:18:08;;;;;;;158.90;152.23;;;10.90;99.90;;;;;;5044865;28;20060;-75
2022/10/27 08:20:37;;;;;;;52.85;49.90;;;10.90;99.90;;;;;;5031335;28;20100;-75
2022/10/27 08:23:05;;;;;;;14.63;11.57;;;10.80;99.90;;;;;;5044889;28;20021;-74
2022/10/27 08:25:32;;;;;;;14.27;11.10;;;10.70;99.90;;;;;;5043943;28;20017;-75
2022/10/27 08:27:58;;;;;;;9.57;8.57;;;10.70;99.90;;;;;;5037670;28;20021;-75
2022/10/27 08:30:29;;;;;;;10.98;9.80;;;10.90;99.90;;;;;;5039067;28;20017;-75
2022/10/27 08:32:57;;;;;;;9.35;8.35;;;10.90;99.90;;;;;;5044627;28;20490;-75
2022/10/27 08:35:23;;;;;;;8.88;7.95;;;11.00;99.90;;;;;;5044442;28;20036;-73
2022/10/27 08:37:49;;;;;;;10.13;8.85;;;11.10;99.90;;;;;;5019982;28;20025;-74
2022/10/27 08:40:15;;;;;;;9.00;8.07;;;11.10;99.90;;;;;;5034707;28;20041;-74
2022/10/27 08:43:25;;;;;;;8.48;7.57;;;11.00;99.90;;;;;;5051469;28;20028;-75
2022/10/27 08:46:01;;;;;;;9.43;6.93;;;11.10;99.90;;;;;;5044482;28;20022;-74
2022/10/27 08:48:29;;;;;;;8.80;6.93;;;11.30;99.90;;;;;;5045819;28;20025;-75
2022/10/27 08:50:55;;;;;;;6.40;5.80;;;11.50;99.90;;;;;;5024798;28;20017;-74
2022/10/27 08:53:32;;;;;;;7.95;6.65;;;11.60;99.90;;;;;;5024902;28;20120;-74
2022/10/27 08:56:26;;;;;;;74.05;70.75;;;11.70;99.90;;;;;;5031345;28;20030;-74
2022/10/27 08:58:51;;;;;;;60.60;57.72;;;11.70;99.90;;;;;;5023228;28;20044;-74
2022/10/27 09:01:41;;;;;;;51.70;49.13;;;11.60;99.90;;;;;;5037768;28;20037;-75
2022/10/27 09:04:22;;;;;;;75.57;71.97;;;11.60;99.90;;;;;;5044099;28;20029;-75
2022/10/27 09:07:09;;;;;;;49.85;47.15;;;11.50;99.90;;;;;;5048097;28;20033;-73
2022/10/27 09:09:58;;;;;;;29.15;26.77;;;11.30;99.90;;;;;;5049772;28;20029;-74
2022/10/27 09:12:43;;;;;;;47.08;16.77;;;11.50;99.90;;;;;;5043046;28;20032;-75
2022/10/27 09:15:08;;;;;;;92.13;21.50;;;11.40;99.90;;;;;;5022315;28;20069;-74
2022/10/27 09:17:59;;;;;;;69.35;20.98;;;11.30;99.90;;;;;;5034213;28;20108;-74
2022/10/27 09:20:48;;;;;;;49.38;15.77;;;11.00;99.90;;;;;;5034472;28;20030;-74
2022/10/27 09:23:21;;;;;;;40.95;18.98;;;11.10;99.90;;;;;;5020442;28;20483;-74
2022/10/27 09:25:51;;;;;;;48.70;44.15;;;11.10;99.90;;;;;;5034784;28;20112;-75
2022/10/27 09:28:47;;;;;;;52.90;28.33;;;11.20;99.90;;;;;;5034461;28;20403;-73
2022/10/27 09:31:16;;;;;;;26.88;20.10;;;11.40;99.90;;;;;;5047208;28;20118;-75
2022/10/27 09:33:53;;;;;;;15.60;14.00;;;11.40;99.90;;;;;;5040644;28;20109;-74
2022/10/27 09:36:21;;;;;;;15.18;13.57;;;11.60;99.90;;;;;;5042647;28;20021;-74
2022/10/27 09:38:47;;;;;;;12.75;11.45;;;11.70;99.90;;;;;;5040060;28;20032;-74
2022/10/27 09:41:12;;;;;;;16.38;14.68;;;11.70;99.90;;;;;;5053975;28;20024;-74
2022/10/27 09:43:38;;;;;;;15.32;13.55;;;11.80;99.90;;;;;;5022731;28;20048;-74
2022/10/27 09:46:26;;;;;;;13.02;11.82;;;11.90;99.90;;;;;;5046862;28;20535;-76
2022/10/27 09:48:55;;;;;;;11.80;10.68;;;11.90;99.90;;;;;;5029286;28;20076;-74
2022/10/27 09:51:24;;;;;;;10.80;9.70;;;12.00;99.90;;;;;;5045545;28;20079;-76
2022/10/27 09:53:51;;;;;;;10.82;9.63;;;12.20;99.90;;;;;;5040482;28;20029;-76
2022/10/27 09:56:25;;;;;;;9.88;8.77;;;12.20;99.90;;;;;;5041428;28;20017;-76
2022/10/27 09:58:56;;;;;;;8.98;8.18;;;12.30;99.90;;;;;;5033593;28;20475;-76
2022/10/27 10:01:26;;;;;;;7.50;6.80;;;12.50;99.90;;;;;;5047055;28;20033;-76
2022/10/27 10:04:03;;;;;;;10.20;8.10;;;12.60;99.90;;;;;;5033775;28;20025;-76
2022/10/27 10:06:33;;;;;;;8.02;7.22;;;12.60;99.90;;;;;;5036326;28;20056;-76
2022/10/27 10:09:16;;;;;;;7.25;6.53;;;12.90;99.90;;;;;;5025537;28;20025;-75
2022/10/27 10:11:42;;;;;;;8.02;7.22;;;13.00;99.90;;;;;;5045916;28;20025;-76
2022/10/27 10:14:22;;;;;;;7.95;6.80;;;13.00;99.90;;;;;;5040255;28;20080;-75
2022/10/27 10:16:48;;;;;;;8.27;6.40;;;13.20;99.90;;;;;;5028765;28;20013;-77
2022/10/27 10:19:18;;;;;;;6.95;6.28;;;13.30;99.90;;;;;;5035395;28;20021;-76
2022/10/27 10:22:00;;;;;;;6.57;5.90;;;13.40;99.90;;;;;;5045159;28;20071;-76
2022/10/27 10:24:32;;;;;;;8.95;5.65;;;13.50;99.90;;;;;;5036950;28;20031;-76
2022/10/27 10:27:00;;;;;;;80.50;76.00;;;13.60;99.90;;;;;;5052877;28;20025;-76
2022/10/27 10:29:44;;;;;;;13.07;12.07;;;13.70;99.90;;;;;;5035078;28;20029;-76
2022/10/27 10:32:24;;;;;;;10.45;9.75;;;13.80;99.90;;;;;;5033126;28;20076;-74
2022/10/27 10:34:52;;;;;;;30.55;28.77;;;14.00;99.90;;;;;;5015263;28;20380;-74
2022/10/27 10:37:31;;;;;;;7.30;5.68;;;14.00;99.90;;;;;;5032859;28;20022;-74
2022/10/27 10:40:22;;;;;;;7.63;6.28;;;14.10;99.90;;;;;;5015119;28;20029;-73
2022/10/27 10:43:03;;;;;;;8.27;6.00;;;14.10;99.90;;;;;;5020195;28;20029;-73
2022/10/27 10:45:33;;;;;;;6.63;5.00;;;14.40;99.90;;;;;;5031941;28;20034;-74
2022/10/27 10:48:27;;;;;;;5.80;5.30;;;14.60;99.90;;;;;;5032319;28;20097;-74
2022/10/27 10:50:53;;;;;;;6.50;4.82;;;14.40;99.90;;;;;;5004649;28;20124;-75
2022/10/27 10:53:28;;;;;;;6.65;4.97;;;14.40;99.90;;;;;;5036626;28;20112;-74
2022/10/27 10:55:55;;;;;;;9.50;5.32;;;14.40;99.90;;;;;;5022304;28;20022;-72
2022/10/27 10:58:23;;;;;;;9.00;6.45;;;14.50;99.90;;;;;;5034140;28;20120;-72
2022/10/27 11:00:54;;;;;;;6.72;6.00;;;14.50;99.90;;;;;;5052305;28;20034;-74
2022/10/27 11:03:23;;;;;;;5.57;5.05;;;14.60;99.90;;;;;;5052394;28;20514;-73
2022/10/27 11:06:03;;;;;;;6.68;5.60;;;14.60;99.90;;;;;;5052504;28;20056;-74
2022/10/27 11:08:40;;;;;;;6.60;5.18;;;14.50;99.90;;;;;;5032518;28;20031;-74
2022/10/27 11:11:12;;;;;;;9.32;5.57;;;14.60;99.90;;;;;;5022392;28;20029;-74
2022/10/27 11:13:44;;;;;;;7.45;5.32;;;14.60;99.90;;;;;;5049083;28;20064;-74
2022/10/27 11:16:11;;;;;;;5.45;4.82;;;14.70;99.90;;;;;;5032520;28;20041;-73
2022/10/27 11:18:59;;;;;;;5.35;4.60;;;14.80;99.90;;;;;;5042146;28;20021;-74
2022/10/27 11:21:46;;;;;;;4.68;4.28;;;14.90;99.90;;;;;;5033047;28;20026;-74
2022/10/27 11:24:24;;;;;;;7.20;4.57;;;15.00;99.90;;;;;;5029914;28;20025;-74
2022/10/27 11:26:58;;;;;;;4.47;3.95;;;15.20;99.90;;;;;;5052096;28;20025;-74
2022/10/27 11:29:40;;;;;;;5.53;4.00;;;15.20;99.90;;;;;;5039036;28;20100;-73
2022/10/27 11:32:20;;;;;;;6.07;3.92;;;15.40;99.90;;;;;;5022188;28;20025;-74
2022/10/27 11:35:15;;;;;;;5.50;3.85;;;15.60;99.90;;;;;;5031377;28;20053;-73
2022/10/27 11:38:24;;;;;;;7.05;3.70;;;16.00;99.90;;;;;;5049830;28;20025;-76
2022/10/27 11:40:59;;;;;;;3.80;3.17;;;16.50;99.90;;;;;;5033474;28;20491;-73
2022/10/27 11:43:31;;;;;;;4.03;2.90;;;17.40;99.90;;;;;;5014359;28;20064;-75
2022/10/27 11:46:08;;;;;;;6.78;3.05;;;17.70;99.90;;;;;;5031990;28;20068;-74
2022/10/27 11:48:44;;;;;;;3.78;2.97;;;18.00;99.90;;;;;;5047870;28;20029;-76
2022/10/27 11:51:10;;;;;;;;;;;18.20;99.90;;;;;;5025387;28;20086;-75
2022/10/27 11:53:35;;;;;;;6.53;3.20;;;18.00;99.90;;;;;;5032978;28;20359;-75
2022/10/27 11:56:26;;;;;;;23.10;13.35;;;17.90;99.90;;;;;;5021046;28;20022;-76
2022/10/27 11:59:38;;;;;;;6.20;3.78;;;18.00;99.90;;;;;;5019461;28;20024;-73
2022/10/27 12:02:32;;;;;;;6.95;3.47;;;18.00;99.90;;;;;;5022634;28;20502;-74
2022/10/27 12:05:10;;;;;;;7.70;4.07;;;17.90;99.90;;;;;;5037797;28;20029;-74
2022/10/27 12:08:13;;;;;;;9.20;4.03;;;17.80;99.90;;;;;;5038870;28;20108;-74
2022/10/27 12:10:56;;;;;;;6.63;3.90;;;18.10;99.90;;;;;;5033730;28;20575;-74
2022/10/27 12:13:37;;;;;;;9.00;3.83;;;17.90;99.90;;;;;;5018334;28;20017;-74
2022/10/27 12:16:17;;;;;;;6.97;3.67;;;18.40;99.90;;;;;;5044803;28;20036;-74
2022/10/27 12:19:04;;;;;;;8.65;4.50;;;18.10;99.90;;;;;;5039600;28;20024;-74
2022/10/27 12:21:50;;;;;;;7.65;4.13;;;18.20;99.90;;;;;;5046413;28;20021;-73
2022/10/27 12:24:20;;;;;;;;;;;18.30;99.90;;;;;;5023709;28;20113;-74
2022/10/27 12:26:55;;;;;;;57.70;35.63;;;18.00;99.90;;;;;;5031400;28;19916;-74
2022/10/27 12:29:25;;;;;;;10.20;4.68;;;18.50;99.90;;;;;;5031400;28;20044;-75
2022/10/27 12:32:02;;;;;;;8.68;4.40;;;18.40;99.90;;;;;;5022384;28;20040;-75
2022/10/27 12:34:35;;;;;;;8.65;4.75;;;18.70;99.90;;;;;;5033820;28;20021;-75
2022/10/27 12:37:24;;;;;;;8.30;4.43;;;18.50;99.90;;;;;;5047747;28;20025;-75
2022/10/27 12:40:00;;;;;;;5.97;3.78;;;18.30;99.90;;;;;;5027034;28;20033;-75
2022/10/27 12:42:57;;;;;;;5.97;4.00;;;18.50;99.90;;;;;;5023032;28;20075;-74
2022/10/27 12:45:49;;;;;;;4.90;4.18;;;19.00;99.90;;;;;;5023983;28;20389;-74
2022/10/27 12:48:47;;;;;;;9.18;4.40;;;18.90;99.90;;;;;;5041417;28;20475;-73
2022/10/27 12:51:32;;;;;;;7.47;4.07;;;18.70;99.90;;;;;;5026489;28;20044;-75
2022/10/27 12:54:28;;;;;;;6.05;4.50;;;18.60;99.90;;;;;;5022402;28;20026;-75
2022/10/27 12:57:02;;;;;;;8.65;4.68;;;18.70;99.90;;;;;;5016748;28;20036;-74
2022/10/27 12:59:57;;;;;;;8.30;4.70;;;19.10;99.90;;;;;;5054960;28;20017;-74